Time;durP1;ratioP1;P1;durP2;ratioP2;P2;SDS_P1;SDS_P2;PMS_P1;PMS_P2;Temp;Humidity;BMP_temperature;BMP_pressure;BME280_temperature;BME280_humidity;BME280_pressure;Samples;Min_cycle;Max_cycle;Signal;HPM_P1;HPM_P2
2023/11/16 00:00:21;;;;;;;;;;;7.30;74.40;;;;;;5053516;28;20316;-69
2023/11/16 00:02:47;;;;;;;;;;;7.30;74.40;;;;;;5035651;28;19928;-68
2023/11/16 00:05:16;;;;;;;;;;;7.30;74.40;;;;;;5053591;28;19917;-70
2023/11/16 00:07:47;;;;;;;;;;;7.20;74.30;;;;;;5052383;28;19979;-70
2023/11/16 00:10:16;;;;;;;;;;;7.20;74.30;;;;;;5051790;28;20304;-70
2023/11/16 00:12:42;;;;;;;;;;;7.20;74.40;;;;;;5052292;28;19932;-70
2023/11/16 00:15:09;;;;;;;;;;;7.10;74.20;;;;;;5035455;28;19916;-69
2023/11/16 00:17:38;;;;;;;;;;;7.00;74.10;;;;;;5052118;28;20203;-70
2023/11/16 00:20:13;;;;;;;;;;;7.00;74.20;;;;;;5035676;28;19916;-70
2023/11/16 00:22:39;;;;;;;;;;;7.00;74.20;;;;;;5052073;28;19935;-69
2023/11/16 00:25:08;;;;;;;;;;;7.00;74.30;;;;;;5053594;28;20299;-68
2023/11/16 00:27:34;;;;;;;;;;;6.90;73.50;;;;;;5051974;28;20344;-70
2023/11/16 00:30:02;;;;;;;;;;;6.90;73.90;;;;;;5052119;28;19924;-70
2023/11/16 00:32:28;;;;;;;;;;;6.80;73.90;;;;;;5052872;28;19928;-70
2023/11/16 00:34:54;;;;;;;;;;;6.80;74.10;;;;;;5051819;28;20522;-70
2023/11/16 00:37:20;;;;;;;;;;;6.70;73.90;;;;;;5051752;28;19932;-70
2023/11/16 00:39:47;;;;;;;;;;;6.80;73.80;;;;;;5051429;28;19917;-69
2023/11/16 00:42:13;;;;;;;;;;;6.70;73.70;;;;;;5051131;28;19920;-70
2023/11/16 00:44:39;;;;;;;;;;;6.70;73.60;;;;;;5053009;28;19933;-69
2023/11/16 00:47:05;;;;;;;;;;;6.60;73.30;;;;;;5052913;28;19927;-70
2023/11/16 00:49:31;;;;;;;;;;;6.60;73.20;;;;;;5051707;28;20313;-70
2023/11/16 00:51:57;;;;;;;;;;;6.50;73.40;;;;;;5052419;28;20008;-68
2023/11/16 00:54:23;;;;;;;;;;;6.50;73.50;;;;;;5052615;28;20008;-69
2023/11/16 00:56:49;;;;;;;;;;;6.50;73.20;;;;;;5034962;28;20274;-68
2023/11/16 00:59:15;;;;;;;;;;;6.40;72.50;;;;;;5052642;28;19960;-70
2023/11/16 01:01:41;;;;;;;;;;;6.40;72.80;;;;;;5052357;28;20429;-68
2023/11/16 01:04:11;;;;;;;;;;;6.30;72.70;;;;;;5051704;28;20279;-70
2023/11/16 01:06:39;;;;;;;;;;;6.20;72.10;;;;;;5051547;28;19948;-69
2023/11/16 01:09:07;;;;;;;;;;;6.10;72.40;;;;;;5051587;28;19928;-70
2023/11/16 01:11:33;;;;;;;;;;;6.10;72.70;;;;;;5052148;28;19929;-70
2023/11/16 01:14:01;;;;;;;;;;;6.20;72.90;;;;;;5053143;28;20393;-69
2023/11/16 01:16:34;;;;;;;;;;;6.20;73.10;;;;;;5051470;28;19917;-70
2023/11/16 01:19:01;;;;;;;;;;;6.10;73.30;;;;;;5053091;28;19959;-68
2023/11/16 01:21:27;;;;;;;;;;;6.00;71.70;;;;;;5034139;28;19920;-68
2023/11/16 01:24:01;;;;;;;;;;;6.00;72.30;;;;;;5051609;28;20355;-70
2023/11/16 01:26:29;;;;;;;;;;;5.90;71.90;;;;;;5051484;28;20433;-70
2023/11/16 01:29:01;;;;;;;;;;;5.90;71.90;;;;;;5052872;28;19959;-68
2023/11/16 01:31:27;;;;;;;;;;;5.80;71.40;;;;;;5052240;28;19925;-70
2023/11/16 01:33:53;;;;;;;;;;;5.80;71.60;;;;;;5034450;28;19960;-70
2023/11/16 01:36:19;;;;;;;;;;;5.90;72.30;;;;;;5051057;28;19943;-69
2023/11/16 01:38:46;;;;;;;;;;;5.90;72.30;;;;;;5052486;28;19924;-68
2023/11/16 01:44:00;;;;;;;;;;;5.90;71.90;;;;;;5052665;28;20011;-70
2023/11/16 01:46:27;;;;;;;;;;;6.00;72.50;;;;;;5051121;28;19956;-70
2023/11/16 01:48:54;;;;;;;;;;;6.00;72.20;;;;;;5051255;28;20334;-70
2023/11/16 01:51:21;;;;;;;;;;;6.00;72.30;;;;;;5050265;28;20301;-69
2023/11/16 01:54:06;;;;;;;;;;;6.10;72.50;;;;;;5053745;28;19975;-68
2023/11/16 01:56:34;;;;;;;;;;;6.10;72.60;;;;;;5056123;28;19917;-68
2023/11/16 01:59:01;;;;;;;;;;;6.10;72.70;;;;;;5054914;28;20281;-69
2023/11/16 02:01:47;;;;;;;;;;;6.10;72.90;;;;;;5054054;28;19921;-70
2023/11/16 02:04:14;;;;;;;;;;;6.20;73.10;;;;;;5054924;28;20019;-69
2023/11/16 02:06:40;;;;;;;;;;;6.20;73.60;;;;;;5055888;28;20416;-69
2023/11/16 02:09:06;;;;;;;;;;;6.20;73.70;;;;;;5056141;28;19975;-68
2023/11/16 02:11:32;;;;;;;;;;;6.20;73.80;;;;;;5054035;28;19967;-68
2023/11/16 02:13:58;;;;;;;;;;;6.30;73.90;;;;;;5056284;28;20285;-69
2023/11/16 02:16:24;;;;;;;;;;;6.20;74.60;;;;;;5055598;28;19999;-70
2023/11/16 02:18:52;;;;;;;;;;;6.20;73.80;;;;;;5037713;28;20370;-70
2023/11/16 02:21:18;;;;;;;;;;;6.20;74.10;;;;;;5055115;28;19975;-69
2023/11/16 02:23:46;;;;;;;;;;;6.30;74.20;;;;;;5055834;28;19964;-70
2023/11/16 02:26:12;;;;;;;;;;;6.30;74.20;;;;;;5055519;28;19916;-69
2023/11/16 02:28:38;;;;;;;;;;;6.40;74.10;;;;;;5037675;28;20366;-70
2023/11/16 02:31:04;;;;;;;;;;;6.40;74.20;;;;;;5053982;28;20290;-70
2023/11/16 02:33:32;;;;;;;;;;;6.30;74.40;;;;;;5053969;28;20416;-68
2023/11/16 02:35:58;;;;;;;;;;;6.40;74.70;;;;;;5054116;28;20297;-69
2023/11/16 02:38:24;;;;;;;;;;;6.40;74.80;;;;;;5055071;28;19932;-68
2023/11/16 02:40:51;;;;;;;;;;;6.40;74.90;;;;;;5053097;28;19921;-70
2023/11/16 02:43:18;;;;;;;;;;;6.40;75.10;;;;;;5037645;28;19928;-70
2023/11/16 02:45:44;;;;;;;;;;;6.40;75.10;;;;;;5053982;28;19993;-68
2023/11/16 02:48:13;;;;;;;;;;;6.40;75.20;;;;;;5055287;28;20361;-70
2023/11/16 02:50:39;;;;;;;;;;;6.40;75.10;;;;;;5054612;28;19928;-69
2023/11/16 02:53:05;;;;;;;;;;;6.40;75.10;;;;;;5054861;28;20305;-70
2023/11/16 02:55:34;;;;;;;;;;;6.40;75.10;;;;;;5053481;28;19916;-68
2023/11/16 02:58:00;;;;;;;;;;;6.30;75.10;;;;;;5053919;28;20004;-69
2023/11/16 03:00:26;;;;;;;;;;;6.30;75.10;;;;;;5054544;28;19927;-70
2023/11/16 03:02:53;;;;;;;;;;;6.30;75.30;;;;;;5054625;28;19924;-69
2023/11/16 03:05:21;;;;;;;;;;;6.20;75.40;;;;;;5053460;28;20367;-68
2023/11/16 03:07:50;;;;;;;;;;;6.20;75.40;;;;;;5054863;28;19956;-70
2023/11/16 03:10:16;;;;;;;;;;;6.20;75.50;;;;;;5036443;28;19921;-70
2023/11/16 03:12:44;;;;;;;;;;;6.20;75.50;;;;;;5053463;28;19932;-68
2023/11/16 03:15:10;;;;;;;;;;;6.20;75.60;;;;;;5053399;28;19924;-68
2023/11/16 03:17:56;;;;;;;;;;;6.20;75.80;;;;;;5053311;28;20389;-70
2023/11/16 03:20:25;;;;;;;;;;;6.10;75.70;;;;;;5052621;28;20459;-70
2023/11/16 03:22:51;;;;;;;;;;;6.10;75.80;;;;;;5054503;28;19925;-69
2023/11/16 03:25:17;;;;;;;;;;;6.10;75.80;;;;;;5053160;28;20388;-70
2023/11/16 03:27:44;;;;;;;;;;;6.00;75.60;;;;;;5054396;28;19931;-70
2023/11/16 03:30:10;;;;;;;;;;;6.00;75.70;;;;;;5053654;28;20012;-70
2023/11/16 03:32:36;;;;;;;;;;;6.00;75.00;;;;;;5052891;28;19928;-70
2023/11/16 03:35:03;;;;;;;;;;;5.90;75.50;;;;;;5054321;28;19923;-68
2023/11/16 03:37:31;;;;;;;;;;;5.90;75.40;;;;;;5054007;28;19931;-70
2023/11/16 03:39:57;;;;;;;;;;;5.90;75.30;;;;;;5054065;28;20289;-69
2023/11/16 03:42:23;;;;;;;;;;;5.80;75.20;;;;;;5052060;28;19932;-70
2023/11/16 03:44:50;;;;;;;;;;;5.80;75.10;;;;;;5054177;28;19917;-68
2023/11/16 03:47:16;;;;;;;;;;;5.70;75.30;;;;;;5053814;28;20385;-68
2023/11/16 03:49:41;;;;;;;;;;;5.70;75.30;;;;;;5052735;28;19917;-68
2023/11/16 03:52:07;;;;;;;;;;;5.70;75.30;;;;;;5052065;28;19976;-68
2023/11/16 03:54:33;;;;;;;;;;;5.70;75.10;;;;;;5053993;28;20377;-69
2023/11/16 03:57:00;;;;;;;;;;;5.70;75.10;;;;;;5053749;28;19917;-68
2023/11/16 03:59:26;;;;;;;;;;;5.70;75.20;;;;;;5052565;28;20305;-70
2023/11/16 04:01:51;;;;;;;;;;;5.70;75.10;;;;;;5053104;28;19964;-70
2023/11/16 04:04:19;;;;;;;;;;;5.60;75.10;;;;;;5054215;28;19917;-70
2023/11/16 04:06:46;;;;;;;;;;;5.60;75.10;;;;;;5052577;28;20027;-70
2023/11/16 04:09:12;;;;;;;;;;;5.60;75.10;;;;;;5035791;28;20392;-70
2023/11/16 04:11:57;;;;;;;;;;;5.60;75.10;;;;;;5053128;28;19921;-68
2023/11/16 04:14:23;;;;;;;;;;;5.60;75.30;;;;;;5053751;28;19951;-68
2023/11/16 04:16:52;;;;;;;;;;;5.50;75.40;;;;;;5052709;28;19924;-68
2023/11/16 04:19:18;;;;;;;;;;;5.50;75.50;;;;;;5052441;28;19940;-68
2023/11/16 04:21:44;;;;;;;;;;;5.50;75.40;;;;;;5052735;28;19932;-70
2023/11/16 04:24:11;;;;;;;;;;;5.50;75.50;;;;;;5052109;28;19924;-70
2023/11/16 04:26:37;;;;;;;;;;;5.40;75.30;;;;;;5052132;28;20003;-68
2023/11/16 04:29:05;;;;;;;;;;;5.40;75.20;;;;;;5051922;28;19967;-70
2023/11/16 04:31:31;;;;;;;;;;;5.40;75.10;;;;;;5051328;28;19983;-68
2023/11/16 04:33:57;;;;;;;;;;;5.40;75.20;;;;;;5035496;28;20338;-68
2023/11/16 04:39:12;;;;;;;;;;;5.40;74.70;;;;;;5053279;28;19921;-70
2023/11/16 04:41:41;;;;;;;;;;;5.40;75.50;;;;;;5051350;28;19932;-70
2023/11/16 04:44:08;;;;;;;;;;;5.40;75.40;;;;;;5051907;28;19921;-69
2023/11/16 04:46:33;;;;;;;;;;;5.30;75.60;;;;;;5052986;28;19931;-68
2023/11/16 04:49:01;;;;;;;;;;;5.30;75.50;;;;;;5051975;28;20007;-68
2023/11/16 04:51:27;;;;;;;;;;;5.30;75.60;;;;;;5052378;28;19970;-70
2023/11/16 04:53:53;;;;;;;;;;;5.30;75.70;;;;;;5052784;28;20019;-70
2023/11/16 04:56:19;;;;;;;;;;;5.20;75.40;;;;;;5034765;28;19916;-68
2023/11/16 04:58:45;;;;;;;;;;;5.30;75.30;;;;;;5051524;28;19925;-70
2023/11/16 05:03:56;;;;;;;;;;;5.20;74.20;;;;;;5052239;28;19951;-70
2023/11/16 05:06:22;;;;;;;;;;;5.10;74.60;;;;;;5034752;28;19921;-68
2023/11/16 05:08:47;;;;;;;;;;;5.20;74.40;;;;;;5034702;28;19931;-70
2023/11/16 05:11:32;;;;;;;;;;;5.20;74.40;;;;;;5052097;28;20410;-69
2023/11/16 05:13:59;;;;;;;;;;;5.20;73.90;;;;;;5051685;28;20373;-68
2023/11/16 05:16:26;;;;;;;;;;;5.20;73.90;;;;;;5052560;28;19963;-69
2023/11/16 05:18:53;;;;;;;;;;;5.20;73.50;;;;;;5034981;28;20370;-70
2023/11/16 05:21:19;;;;;;;;;;;5.20;73.50;;;;;;5034023;28;19929;-69
2023/11/16 05:23:45;;;;;;;;;;;5.30;73.60;;;;;;5051498;28;19924;-69
2023/11/16 05:26:11;;;;;;;;;;;5.30;73.40;;;;;;5053174;28;19967;-69
2023/11/16 05:28:37;;;;;;;;;;;5.40;73.40;;;;;;5055320;28;19925;-70
2023/11/16 05:31:06;;;;;;;;;;;5.40;73.30;;;;;;5055978;28;20024;-69
2023/11/16 05:33:32;;;;;;;;;;;5.40;72.70;;;;;;5055228;28;19935;-70
2023/11/16 05:35:59;;;;;;;;;;;5.40;73.20;;;;;;5038350;28;20015;-69
2023/11/16 05:38:25;;;;;;;;;;;5.40;73.40;;;;;;5055039;28;19929;-70
2023/11/16 05:40:51;;;;;;;;;;;5.40;73.50;;;;;;5054440;28;19921;-68
2023/11/16 05:43:18;;;;;;;;;;;5.50;73.60;;;;;;5056616;28;20301;-69
2023/11/16 05:45:44;;;;;;;;;;;5.50;73.60;;;;;;5055161;28;19939;-70
2023/11/16 05:48:10;;;;;;;;;;;5.60;73.80;;;;;;5056334;28;19925;-69
2023/11/16 05:50:37;;;;;;;;;;;5.60;73.80;;;;;;5055643;28;20385;-69
2023/11/16 05:53:03;;;;;;;;;;;5.60;73.60;;;;;;5054685;28;19948;-70
2023/11/16 05:55:33;;;;;;;;;;;5.60;73.00;;;;;;5054839;28;19921;-70
2023/11/16 05:57:59;;;;;;;;;;;5.60;73.80;;;;;;5056227;28;19972;-68
2023/11/16 06:00:25;;;;;;;;;;;5.70;74.00;;;;;;5054304;28;20321;-69
2023/11/16 06:02:51;;;;;;;;;;;5.70;74.10;;;;;;5038309;28;20396;-68
2023/11/16 06:05:18;;;;;;;;;;;5.70;74.30;;;;;;5054726;28;19917;-68
2023/11/16 06:07:44;;;;;;;;;;;5.70;74.70;;;;;;5055805;28;19924;-68
2023/11/16 06:10:10;;;;;;;;;;;5.70;75.10;;;;;;5055121;28;20290;-70
2023/11/16 06:12:38;;;;;;;;;;;5.60;75.00;;;;;;5054369;28;19935;-68
2023/11/16 06:15:07;;;;;;;;;;;5.60;75.20;;;;;;5042370;28;19927;-70
2023/11/16 06:17:33;;;;;;;;;;;5.60;75.10;;;;;;5074184;28;20019;-70
2023/11/16 06:19:59;;;;;;;;;;;5.60;75.30;;;;;;5072497;28;19920;-69
2023/11/16 06:22:25;;;;;;;;;;;5.60;75.20;;;;;;5058380;28;19925;-69
2023/11/16 06:24:51;;;;;;;;;;;5.60;75.20;;;;;;5055651;28;20007;-69
2023/11/16 06:27:18;;;;;;;;;;;5.70;75.20;;;;;;5055414;28;19923;-68
2023/11/16 06:29:45;;;;;;;;;;;5.70;75.00;;;;;;5054278;28;19917;-70
2023/11/16 06:32:11;;;;;;;;;;;5.70;74.90;;;;;;5053689;28;19922;-69
2023/11/16 06:34:37;;;;;;;;;;;5.70;75.00;;;;;;5037421;28;19928;-69
2023/11/16 06:37:04;;;;;;;;;;;5.70;74.90;;;;;;5037207;28;19917;-70
2023/11/16 06:39:30;;;;;;;;;;;5.80;74.30;;;;;;5054374;28;19921;-70
2023/11/16 06:41:57;;;;;;;;;;;5.80;74.60;;;;;;5053082;28;19924;-68
2023/11/16 06:44:22;;;;;;;;;;;5.80;74.50;;;;;;5055245;28;19928;-70
2023/11/16 06:46:49;;;;;;;;;;;5.90;74.50;;;;;;5055257;28;19921;-68
2023/11/16 06:49:16;;;;;;;;;;;5.90;74.60;;;;;;5054987;28;20369;-69
2023/11/16 06:51:42;;;;;;;;;;;6.00;74.50;;;;;;5054686;28;20012;-68
2023/11/16 06:54:11;;;;;;;;;;;5.90;74.60;;;;;;5053780;28;19928;-69
2023/11/16 06:56:37;;;;;;;;;;;6.00;74.80;;;;;;5037576;28;19923;-68
2023/11/16 06:59:03;;;;;;;;;;;6.00;74.70;;;;;;5055243;28;20015;-70
2023/11/16 07:01:30;;;;;;;;;;;6.10;74.60;;;;;;5053140;28;19921;-69
2023/11/16 07:03:56;;;;;;;;;;;6.20;74.30;;;;;;5053781;28;19975;-69
2023/11/16 07:06:22;;;;;;;;;;;6.20;74.20;;;;;;5053549;28;20007;-69
2023/11/16 07:08:47;;;;;;;;;;;6.20;74.00;;;;;;5054926;28;19924;-70
2023/11/16 07:11:15;;;;;;;;;;;6.30;74.20;;;;;;5052876;28;19922;-70
2023/11/16 07:13:41;;;;;;;;;;;6.30;74.10;;;;;;5055026;28;19925;-69
2023/11/16 07:16:08;;;;;;;;;;;6.30;74.20;;;;;;5036776;28;20385;-69
2023/11/16 07:18:34;;;;;;;;;;;6.30;74.00;;;;;;5053230;28;19932;-68
2023/11/16 07:21:04;;;;;;;;;;;6.40;74.00;;;;;;5053989;28;19974;-69
2023/11/16 07:23:30;;;;;;;;;;;6.50;73.80;;;;;;5053248;28;19952;-69
2023/11/16 07:25:59;;;;;;;;;;;6.60;73.10;;;;;;5054370;28;19931;-70
2023/11/16 07:28:26;;;;;;;;;;;6.70;73.50;;;;;;5054206;28;19927;-69
2023/11/16 07:30:52;;;;;;;;;;;6.70;73.20;;;;;;5053971;28;20000;-70
2023/11/16 07:33:19;;;;;;;;;;;6.70;73.10;;;;;;5054570;28;19960;-68
2023/11/16 07:35:47;;;;;;;;;;;6.80;72.80;;;;;;5054267;28;19920;-69
2023/11/16 07:38:14;;;;;;;;;;;6.80;72.90;;;;;;5053045;28;19924;-69
2023/11/16 07:40:40;;;;;;;;;;;6.90;72.60;;;;;;5053457;28;20370;-69
2023/11/16 07:43:06;;;;;;;;;;;7.10;72.40;;;;;;5054378;28;19925;-69
2023/11/16 07:45:32;;;;;;;;;;;7.30;71.50;;;;;;5054104;28;20354;-69
2023/11/16 07:48:01;;;;;;;;;;;7.50;72.60;;;;;;5052722;28;19925;-69
2023/11/16 07:50:31;;;;;;;;;;;7.60;71.10;;;;;;5053344;28;19928;-68
2023/11/16 07:52:59;;;;;;;;;;;7.70;71.10;;;;;;5053516;28;20000;-70
2023/11/16 07:55:26;;;;;;;;;;;7.80;70.70;;;;;;5052666;28;20019;-69
2023/11/16 07:57:53;;;;;;;;;;;7.90;70.60;;;;;;5052701;28;19925;-69
2023/11/16 08:05:50;;;;;;;;;;;8.30;70.00;;;;;;5052712;28;20008;-69
2023/11/16 08:08:18;;;;;;;;;;;8.30;69.70;;;;;;5052591;28;19929;-69
2023/11/16 08:10:45;;;;;;;;;;;8.40;69.90;;;;;;5052848;28;20016;-70
2023/11/16 08:13:23;;;;;;;;;;;8.50;69.80;;;;;;5053854;28;19924;-68
2023/11/16 08:15:52;;;;;;;;;;;8.60;69.60;;;;;;5052198;28;19924;-70
2023/11/16 08:18:21;;;;;;;;;;;8.60;69.80;;;;;;5053614;28;19925;-70
2023/11/16 08:20:48;;;;;;;;;;;8.70;69.60;;;;;;5051770;28;19927;-71
2023/11/16 08:23:14;;;;;;;;;;;8.70;69.30;;;;;;5052028;28;19924;-68
2023/11/16 08:25:40;;;;;;;;;;;8.80;69.10;;;;;;5053430;28;19956;-69
2023/11/16 08:28:08;;;;;;;;;;;9.00;69.40;;;;;;5053206;28;19935;-70
2023/11/16 08:30:34;;;;;;;;;;;9.00;69.20;;;;;;5052673;28;19927;-70
2023/11/16 08:33:00;;;;;;;;;;;9.10;69.20;;;;;;5052066;28;20027;-71
2023/11/16 08:35:26;;;;;;;;;;;9.20;69.30;;;;;;5051673;28;20023;-70
2023/11/16 08:37:54;;;;;;;;;;;9.30;69.40;;;;;;5051805;28;20293;-70
2023/11/16 08:40:20;;;;;;;;;;;9.30;69.30;;;;;;5052278;28;19956;-68
2023/11/16 08:42:46;;;;;;;;;;;9.70;69.00;;;;;;5051968;28;19932;-70
2023/11/16 08:48:08;;;;;;;;;;;10.40;67.10;;;;;;5053363;28;19931;-69
2023/11/16 08:50:34;;;;;;;;;;;10.80;64.80;;;;;;5051098;28;20012;-70
2023/11/16 08:53:07;;;;;;;;;;;11.00;64.90;;;;;;5052563;28;19931;-69
2023/11/16 08:55:33;;;;;;;;;;;11.30;64.80;;;;;;5052854;28;19916;-70
2023/11/16 08:58:00;;;;;;;;;;;11.10;64.60;;;;;;5053231;28;19924;-70
2023/11/16 09:00:37;;;;;;;;;;;11.30;64.40;;;;;;5051079;28;19921;-70
2023/11/16 09:03:06;;;;;;;;;;;11.70;63.80;;;;;;5052575;28;20381;-69
2023/11/16 09:05:32;;;;;;;;;;;12.20;61.60;;;;;;5051443;28;19927;-70
2023/11/16 09:08:01;;;;;;;;;;;12.90;60.50;;;;;;5051592;28;20015;-70
2023/11/16 09:10:27;;;;;;;;;;;13.30;58.50;;;;;;5034141;28;19994;-69
2023/11/16 09:12:55;;;;;;;;;;;13.40;59.00;;;;;;5051578;28;19929;-69
2023/11/16 09:15:22;;;;;;;;;;;13.40;59.10;;;;;;5052515;28;19952;-69
2023/11/16 09:17:49;;;;;;;;;;;13.70;59.20;;;;;;5051609;28;19925;-70
2023/11/16 09:20:18;;;;;;;;;;;13.90;58.30;;;;;;5050791;28;19917;-70
2023/11/16 09:22:45;;;;;;;;;;;13.80;58.80;;;;;;5051155;28;20040;-69
2023/11/16 09:25:25;;;;;;;;;;;13.70;58.90;;;;;;5052885;28;19917;-70
2023/11/16 09:27:54;;;;;;;;;;;13.70;58.90;;;;;;5052581;28;19929;-69
2023/11/16 09:30:22;;;;;;;;;;;13.70;59.70;;;;;;5034454;28;19921;-70
2023/11/16 09:35:34;;;;;;;;;;;13.80;59.50;;;;;;5051473;28;20289;-69
2023/11/16 09:38:08;;;;;;;;;;;14.00;59.50;;;;;;5051292;28;19924;-69
2023/11/16 09:40:49;;;;;;;;;;;14.20;58.60;;;;;;5051691;28;19928;-68
2023/11/16 09:46:02;;;;;;;;;;;14.40;59.00;;;;;;5052411;28;19923;-68
2023/11/16 09:48:29;;;;;;;;;;;14.30;58.20;;;;;;5034652;28;19932;-70
2023/11/16 09:50:55;;;;;;;;;;;14.20;58.40;;;;;;5033926;28;19920;-70
2023/11/16 09:56:07;;;;;;;;;;;14.30;58.50;;;;;;5051350;28;20001;-69
2023/11/16 09:58:38;;;;;;;;;;;14.30;58.90;;;;;;5050925;28;19924;-68
2023/11/16 10:03:48;;;;;;;;;;;14.60;56.90;;;;;;5051295;28;19975;-70
2023/11/16 10:06:20;;;;;;;;;;;14.60;57.00;;;;;;5052244;28;20007;-69
2023/11/16 10:08:49;;;;;;;;;;;14.70;57.20;;;;;;5052446;28;20366;-70
2023/11/16 10:11:16;;;;;;;;;;;14.70;57.30;;;;;;5050405;28;19948;-70
2023/11/16 10:13:53;;;;;;;;;;;14.70;57.40;;;;;;5051967;28;19921;-70
2023/11/16 10:16:25;;;;;;;;;;;14.80;57.00;;;;;;5055745;28;19975;-70
2023/11/16 10:18:59;;;;;;;;;;;15.00;57.00;;;;;;5056045;28;19975;-70
2023/11/16 10:21:25;;;;;;;;;;;14.90;56.30;;;;;;5055433;28;19925;-70
2023/11/16 10:23:51;;;;;;;;;;;14.90;56.60;;;;;;5037809;28;19927;-69
2023/11/16 10:29:02;;;;;;;;;;;14.70;56.10;;;;;;5055795;28;19927;-70
2023/11/16 10:31:47;;;;;;;;;;;14.50;57.30;;;;;;5053836;28;19925;-70
2023/11/16 10:34:15;;;;;;;;;;;14.40;57.80;;;;;;5054304;28;19954;-69
2023/11/16 10:36:44;;;;;;;;;;;14.30;58.00;;;;;;5054199;28;20378;-70
2023/11/16 10:39:12;;;;;;;;;;;14.20;58.10;;;;;;5054146;28;19960;-70
2023/11/16 10:41:38;;;;;;;;;;;14.20;58.00;;;;;;5053659;28;19925;-69
2023/11/16 10:44:05;;;;;;;;;;;14.30;57.60;;;;;;5054234;28;19921;-69
2023/11/16 10:46:31;;;;;;;;;;;14.30;58.10;;;;;;5037352;28;19927;-70
2023/11/16 10:48:57;;;;;;;;;;;14.20;58.90;;;;;;5037473;28;19921;-70
2023/11/16 10:51:25;;;;;;;;;;;14.20;58.50;;;;;;5054477;28;19931;-70
2023/11/16 10:54:04;;;;;;;;;;;14.10;58.60;;;;;;5053612;28;19925;-69
2023/11/16 10:56:31;;;;;;;;;;;14.10;58.90;;;;;;5053672;28;19940;-69
2023/11/16 10:58:59;;;;;;;;;;;14.10;58.60;;;;;;5054025;28;19936;-69
2023/11/16 11:01:25;;;;;;;;;;;14.40;58.30;;;;;;5053180;28;19928;-69
2023/11/16 11:03:56;;;;;;;;;;;14.50;58.20;;;;;;5055131;28;19947;-69
2023/11/16 11:06:22;;;;;;;;;;;14.90;58.00;;;;;;5055103;28;19924;-69
2023/11/16 11:08:53;;;;;;;;;;;15.30;57.30;;;;;;5055134;28;19925;-70
2023/11/16 11:11:42;;;;;;;;;;;15.60;56.60;;;;;;5052842;28;19921;-69
2023/11/16 11:14:10;;;;;;;;;;;15.70;56.30;;;;;;5053591;28;19925;-70
2023/11/16 11:16:39;;;;;;;;;;;15.80;55.60;;;;;;5053341;28;19920;-69
2023/11/16 11:19:07;;;;;;;;;;;15.70;56.00;;;;;;5054987;28;20358;-69
2023/11/16 11:21:34;;;;;;;;;;;15.60;55.30;;;;;;5052856;28;19921;-69
2023/11/16 11:24:04;;;;;;;;;;;15.40;56.30;;;;;;5054502;28;20504;-69
2023/11/16 11:26:43;;;;;;;;;;;15.20;56.60;;;;;;5054687;28;19917;-70
2023/11/16 11:29:10;;;;;;;;;;;15.10;57.00;;;;;;5036641;28;19925;-69
2023/11/16 11:31:50;;;;;;;;;;;15.20;56.30;;;;;;5052657;28;20274;-68
2023/11/16 11:34:16;;;;;;;;;;;15.20;56.30;;;;;;5053314;28;20159;-70
2023/11/16 11:36:44;;;;;;;;;;;15.30;56.10;;;;;;5053089;28;19983;-70
2023/11/16 11:39:14;;;;;;;;;;;15.30;56.10;;;;;;5036433;28;19925;-70
2023/11/16 11:41:51;;;;;;;;;;;15.40;56.20;;;;;;5052613;28;19986;-70
2023/11/16 11:44:17;;;;;;;;;;;15.50;55.90;;;;;;5052996;28;19970;-69
2023/11/16 11:46:43;;;;;;;;;;;15.50;56.10;;;;;;5054149;28;19960;-70
2023/11/16 11:49:13;;;;;;;;;;;15.50;55.70;;;;;;5052852;28;19925;-70
2023/11/16 11:51:41;;;;;;;;;;;15.90;55.10;;;;;;5053575;28;20290;-69
2023/11/16 11:54:08;;;;;;;;;;;15.70;54.50;;;;;;5035970;28;20331;-69
2023/11/16 11:56:35;;;;;;;;;;;15.50;55.10;;;;;;5053681;28;19923;-70
2023/11/16 11:59:01;;;;;;;;;;;15.20;55.90;;;;;;5052517;28;19928;-69
2023/11/16 12:01:27;;;;;;;;;;;15.20;56.40;;;;;;5053222;28;19998;-69
2023/11/16 12:04:04;;;;;;;;;;;15.30;56.70;;;;;;5054076;28;19966;-70
2023/11/16 12:06:30;;;;;;;;;;;16.10;55.00;;;;;;5052457;28;20356;-70
2023/11/16 12:08:56;;;;;;;;;;;16.60;53.50;;;;;;5053471;28;20046;-69
2023/11/16 12:11:41;;;;;;;;;;;16.90;51.90;;;;;;5051660;28;19924;-69
2023/11/16 12:14:09;;;;;;;;;;;17.20;51.10;;;;;;5052437;28;20297;-69
2023/11/16 12:16:35;;;;;;;;;;;17.20;51.00;;;;;;5053587;28;19921;-69
2023/11/16 12:19:01;;;;;;;;;;;17.40;50.70;;;;;;5035787;28;20003;-69
2023/11/16 12:21:27;;;;;;;;;;;17.50;50.40;;;;;;5051676;28;19935;-70
2023/11/16 12:23:54;;;;;;;;;;;17.60;49.90;;;;;;5035577;28;19975;-71
2023/11/16 12:26:39;;;;;;;;;;;17.40;49.80;;;;;;5052078;28;19971;-71
2023/11/16 12:29:26;;;;;;;;;;;17.40;49.70;;;;;;5052026;28;19952;-70
2023/11/16 12:32:04;;;;;;;;;;;17.40;49.10;;;;;;5051653;28;20012;-70
2023/11/16 12:34:30;;;;;;;;;;;17.30;49.50;;;;;;5053026;28;20027;-69
2023/11/16 12:36:58;;;;;;;;;;;17.20;49.90;;;;;;5052527;28;19917;-69
2023/11/16 12:39:28;;;;;;;;;;;17.00;48.60;;;;;;5053512;28;20308;-70
2023/11/16 12:41:55;;;;;;;;;;;16.90;49.40;;;;;;5052637;28;20266;-70
2023/11/16 12:44:25;;;;;;;;;;;16.70;49.70;;;;;;5051618;28;20432;-71
2023/11/16 12:46:51;;;;;;;;;;;16.60;49.80;;;;;;5053137;28;19952;-69
2023/11/16 12:49:18;;;;;;;;;;;16.40;50.20;;;;;;5053378;28;19973;-71
2023/11/16 12:51:44;;;;;;;;;;;16.20;50.90;;;;;;5051064;28;19933;-70
2023/11/16 12:54:09;;;;;;;;;;;15.90;50.70;;;;;;5051531;28;19925;-69
2023/11/16 12:56:38;;;;;;;;;;;15.70;51.80;;;;;;5051125;28;20737;-71
2023/11/16 12:59:06;;;;;;;;;;;15.60;51.90;;;;;;5053167;28;19966;-70
2023/11/16 13:01:33;;;;;;;;;;;15.40;52.40;;;;;;5050960;28;19925;-69
2023/11/16 13:04:00;;;;;;;;;;;15.40;52.90;;;;;;5051752;28;19985;-70
2023/11/16 13:06:27;;;;;;;;;;;15.40;53.00;;;;;;5053231;28;20408;-67
2023/11/16 13:08:54;;;;;;;;;;;15.40;52.60;;;;;;5051612;28;19936;-70
2023/11/16 13:11:20;;;;;;;;;;;15.20;53.80;;;;;;5050835;28;20007;-71
2023/11/16 13:13:46;;;;;;;;;;;15.00;53.10;;;;;;5053181;28;19936;-70
2023/11/16 13:16:18;;;;;;;;;;;14.90;54.60;;;;;;5051394;28;19916;-70
2023/11/16 13:18:47;;;;;;;;;;;14.90;54.80;;;;;;5051611;28;19925;-71
2023/11/16 13:21:14;;;;;;;;;;;14.90;55.10;;;;;;5051012;28;20369;-70
2023/11/16 13:23:41;;;;;;;;;;;14.90;54.90;;;;;;5051421;28;20419;-70
2023/11/16 13:26:08;;;;;;;;;;;14.90;54.80;;;;;;5052576;28;19921;-70
2023/11/16 13:28:33;;;;;;;;;;;15.10;54.60;;;;;;5034460;28;20015;-69
2023/11/16 13:31:01;;;;;;;;;;;15.00;54.60;;;;;;5050736;28;19921;-70
2023/11/16 13:33:27;;;;;;;;;;;14.80;54.50;;;;;;5034618;28;19929;-70
2023/11/16 13:35:53;;;;;;;;;;;14.80;54.20;;;;;;5034710;28;19921;-67
2023/11/16 13:38:19;;;;;;;;;;;15.00;54.40;;;;;;5052497;28;19929;-69
2023/11/16 13:40:45;;;;;;;;;;;15.00;54.50;;;;;;5052777;28;19947;-69
2023/11/16 13:43:13;;;;;;;;;;;15.00;54.20;;;;;;5052765;28;19932;-69
2023/11/16 13:45:38;;;;;;;;;;;14.90;54.50;;;;;;5072442;28;19970;-68
2023/11/16 13:48:05;;;;;;;;;;;14.90;54.80;;;;;;5072925;28;19924;-69
2023/11/16 13:50:30;;;;;;;;;;;14.80;54.50;;;;;;5075607;28;19921;-67
2023/11/16 13:52:56;;;;;;;;;;;14.70;55.60;;;;;;5074810;28;20461;-68
2023/11/16 13:55:22;;;;;;;;;;;14.50;56.70;;;;;;5074769;28;19925;-67
2023/11/16 13:57:48;;;;;;;;;;;14.40;56.20;;;;;;5058162;28;19927;-69
2023/11/16 14:00:14;;;;;;;;;;;14.20;56.40;;;;;;5075405;28;20430;-67
2023/11/16 14:05:25;;;;;;;;;;;14.10;57.30;;;;;;5074930;28;19928;-68
2023/11/16 14:07:53;;;;;;;;;;;14.00;57.80;;;;;;5074617;28;19921;-69
2023/11/16 14:10:19;;;;;;;;;;;13.90;57.80;;;;;;5075088;28;19920;-69
2023/11/16 14:12:44;;;;;;;;;;;13.80;57.90;;;;;;5075895;28;19921;-67
2023/11/16 14:15:10;;;;;;;;;;;13.80;58.30;;;;;;5075774;28;19920;-69
2023/11/16 14:17:56;;;;;;;;;;;13.70;58.40;;;;;;5074189;28;20007;-67
2023/11/16 14:20:22;;;;;;;;;;;13.70;58.50;;;;;;5073824;28;20389;-67
2023/11/16 14:22:49;;;;;;;;;;;13.60;58.60;;;;;;5057630;28;19924;-67
2023/11/16 14:25:15;;;;;;;;;;;13.50;58.70;;;;;;5074364;28;19943;-68
2023/11/16 14:27:41;;;;;;;;;;;13.50;58.90;;;;;;5057520;28;19920;-68
2023/11/16 14:30:08;;;;;;;;;;;13.40;58.40;;;;;;5075099;28;19943;-67
2023/11/16 14:32:34;;;;;;;;;;;13.40;59.10;;;;;;5075310;28;19966;-67
2023/11/16 14:35:03;;;;;;;;;;;13.30;59.10;;;;;;5057531;28;19920;-67
2023/11/16 14:37:29;;;;;;;;;;;13.30;59.90;;;;;;5073953;28;20250;-67
2023/11/16 14:39:55;;;;;;;;;;;13.20;60.20;;;;;;5073989;28;19920;-68
2023/11/16 14:42:21;;;;;;;;;;;13.20;61.20;;;;;;5056669;28;19924;-69
2023/11/16 14:44:47;;;;;;;;;;;13.10;61.00;;;;;;5057457;28;19966;-67
2023/11/16 14:47:13;;;;;;;;;;;13.10;62.10;;;;;;5073846;28;20330;-68
2023/11/16 14:49:39;;;;;;;;;;;13.00;61.10;;;;;;5073253;28;19978;-67
2023/11/16 14:52:05;;;;;;;;;;;13.00;61.30;;;;;;5058392;28;19925;-67
2023/11/16 14:54:33;;;;;;;;;;;13.00;60.80;;;;;;5053942;28;19929;-67
2023/11/16 14:56:59;;;;;;;;;;;12.90;61.90;;;;;;5053924;28;20358;-67
2023/11/16 14:59:25;;;;;;;;;;;12.90;62.20;;;;;;5052983;28;20019;-67